sensor_id;sensor_type;location;lat;lon;timestamp;P1;durP1;ratioP1;P2;durP2;ratioP2
80758;SDS011;70150;45.582;10.178;2023-07-02T00:02:20;10.20;;;8.02;;
80758;SDS011;70150;45.582;10.178;2023-07-02T00:04:46;12.35;;;9.40;;
80758;SDS011;70150;45.582;10.178;2023-07-02T00:07:12;12.45;;;8.95;;
80758;SDS011;70150;45.582;10.178;2023-07-02T00:09:37;14.95;;;9.48;;
80758;SDS011;70150;45.582;10.178;2023-07-02T00:12:03;12.85;;;8.32;;
80758;SDS011;70150;45.582;10.178;2023-07-02T00:14:29;12.68;;;8.85;;
80758;SDS011;70150;45.582;10.178;2023-07-02T00:16:55;11.60;;;8.30;;
80758;SDS011;70150;45.582;10.178;2023-07-02T00:19:20;13.98;;;8.07;;
80758;SDS011;70150;45.582;10.178;2023-07-02T00:21:46;11.10;;;7.95;;
80758;SDS011;70150;45.582;10.178;2023-07-02T00:24:12;11.75;;;7.63;;
80758;SDS011;70150;45.582;10.178;2023-07-02T00:26:38;11.57;;;7.78;;
80758;SDS011;70150;45.582;10.178;2023-07-02T00:29:06;13.75;;;8.30;;
80758;SDS011;70150;45.582;10.178;2023-07-02T00:31:33;11.65;;;8.48;;
80758;SDS011;70150;45.582;10.178;2023-07-02T00:33:59;13.90;;;8.32;;
80758;SDS011;70150;45.582;10.178;2023-07-02T00:41:17;12.18;;;8.63;;
80758;SDS011;70150;45.582;10.178;2023-07-02T00:43:43;13.45;;;8.25;;
80758;SDS011;70150;45.582;10.178;2023-07-02T00:48:43;10.98;;;8.23;;
80758;SDS011;70150;45.582;10.178;2023-07-02T00:51:11;12.70;;;8.77;;
80758;SDS011;70150;45.582;10.178;2023-07-02T00:53:39;14.57;;;8.73;;
80758;SDS011;70150;45.582;10.178;2023-07-02T00:56:05;15.43;;;9.13;;
80758;SDS011;70150;45.582;10.178;2023-07-02T00:58:31;12.68;;;8.88;;
80758;SDS011;70150;45.582;10.178;2023-07-02T01:00:58;12.07;;;8.73;;
80758;SDS011;70150;45.582;10.178;2023-07-02T01:03:24;14.05;;;8.88;;
80758;SDS011;70150;45.582;10.178;2023-07-02T01:05:49;12.90;;;9.50;;
80758;SDS011;70150;45.582;10.178;2023-07-02T01:08:15;13.05;;;9.00;;
80758;SDS011;70150;45.582;10.178;2023-07-02T01:10:43;13.57;;;9.30;;
80758;SDS011;70150;45.582;10.178;2023-07-02T01:13:10;12.10;;;8.77;;
80758;SDS011;70150;45.582;10.178;2023-07-02T01:15:41;12.40;;;8.82;;
80758;SDS011;70150;45.582;10.178;2023-07-02T01:18:09;12.38;;;8.98;;
80758;SDS011;70150;45.582;10.178;2023-07-02T01:20:36;16.33;;;9.32;;
80758;SDS011;70150;45.582;10.178;2023-07-02T01:23:02;15.55;;;10.80;;
80758;SDS011;70150;45.582;10.178;2023-07-02T01:25:29;17.40;;;11.38;;
80758;SDS011;70150;45.582;10.178;2023-07-02T01:28:01;16.02;;;10.82;;
80758;SDS011;70150;45.582;10.178;2023-07-02T01:30:28;15.27;;;10.90;;
80758;SDS011;70150;45.582;10.178;2023-07-02T01:32:53;15.75;;;10.75;;
80758;SDS011;70150;45.582;10.178;2023-07-02T01:35:21;15.60;;;10.77;;
80758;SDS011;70150;45.582;10.178;2023-07-02T01:37:47;16.05;;;11.10;;
80758;SDS011;70150;45.582;10.178;2023-07-02T01:40:15;14.20;;;9.73;;
80758;SDS011;70150;45.582;10.178;2023-07-02T01:42:40;16.70;;;11.13;;
80758;SDS011;70150;45.582;10.178;2023-07-02T01:45:06;14.95;;;10.02;;
80758;SDS011;70150;45.582;10.178;2023-07-02T01:47:32;15.55;;;10.30;;
80758;SDS011;70150;45.582;10.178;2023-07-02T01:49:59;19.25;;;11.15;;
80758;SDS011;70150;45.582;10.178;2023-07-02T01:52:24;14.95;;;9.93;;
80758;SDS011;70150;45.582;10.178;2023-07-02T01:54:50;12.95;;;8.82;;
80758;SDS011;70150;45.582;10.178;2023-07-02T01:57:19;14.15;;;9.70;;
80758;SDS011;70150;45.582;10.178;2023-07-02T01:59:45;13.00;;;9.20;;
80758;SDS011;70150;45.582;10.178;2023-07-02T02:02:10;13.27;;;8.73;;
80758;SDS011;70150;45.582;10.178;2023-07-02T02:04:36;13.18;;;9.38;;
80758;SDS011;70150;45.582;10.178;2023-07-02T02:07:02;11.05;;;8.48;;
80758;SDS011;70150;45.582;10.178;2023-07-02T02:09:27;13.82;;;8.95;;
80758;SDS011;70150;45.582;10.178;2023-07-02T02:11:55;13.90;;;9.00;;
80758;SDS011;70150;45.582;10.178;2023-07-02T02:14:20;15.40;;;9.23;;
80758;SDS011;70150;45.582;10.178;2023-07-02T02:16:48;16.13;;;9.73;;
80758;SDS011;70150;45.582;10.178;2023-07-02T02:19:16;14.30;;;9.55;;
80758;SDS011;70150;45.582;10.178;2023-07-02T02:21:42;15.77;;;9.55;;
80758;SDS011;70150;45.582;10.178;2023-07-02T02:24:08;16.48;;;10.52;;
80758;SDS011;70150;45.582;10.178;2023-07-02T02:26:34;15.88;;;10.02;;
80758;SDS011;70150;45.582;10.178;2023-07-02T02:29:00;15.35;;;10.10;;
80758;SDS011;70150;45.582;10.178;2023-07-02T02:31:26;16.88;;;10.48;;
80758;SDS011;70150;45.582;10.178;2023-07-02T02:33:51;15.75;;;10.77;;
80758;SDS011;70150;45.582;10.178;2023-07-02T02:36:17;13.82;;;9.70;;
80758;SDS011;70150;45.582;10.178;2023-07-02T02:38:45;15.02;;;10.65;;
80758;SDS011;70150;45.582;10.178;2023-07-02T02:41:10;15.27;;;10.73;;
80758;SDS011;70150;45.582;10.178;2023-07-02T02:43:36;15.98;;;10.45;;
80758;SDS011;70150;45.582;10.178;2023-07-02T02:46:01;14.45;;;10.18;;
80758;SDS011;70150;45.582;10.178;2023-07-02T02:48:29;14.60;;;9.90;;
80758;SDS011;70150;45.582;10.178;2023-07-02T02:50:54;15.00;;;10.75;;
80758;SDS011;70150;45.582;10.178;2023-07-02T02:53:20;17.17;;;11.25;;
80758;SDS011;70150;45.582;10.178;2023-07-02T02:55:46;16.08;;;11.00;;
80758;SDS011;70150;45.582;10.178;2023-07-02T02:58:11;15.88;;;11.20;;
80758;SDS011;70150;45.582;10.178;2023-07-02T03:00:37;18.90;;;11.32;;
80758;SDS011;70150;45.582;10.178;2023-07-02T03:03:07;18.73;;;11.63;;
80758;SDS011;70150;45.582;10.178;2023-07-02T03:05:32;16.63;;;12.02;;
80758;SDS011;70150;45.582;10.178;2023-07-02T03:07:58;16.73;;;11.23;;
80758;SDS011;70150;45.582;10.178;2023-07-02T03:10:24;18.42;;;11.48;;
80758;SDS011;70150;45.582;10.178;2023-07-02T03:12:49;16.83;;;10.68;;
80758;SDS011;70150;45.582;10.178;2023-07-02T03:15:15;17.58;;;11.13;;
80758;SDS011;70150;45.582;10.178;2023-07-02T03:17:43;17.05;;;11.10;;
80758;SDS011;70150;45.582;10.178;2023-07-02T03:20:09;20.60;;;11.35;;
80758;SDS011;70150;45.582;10.178;2023-07-02T03:22:34;19.10;;;11.25;;
80758;SDS011;70150;45.582;10.178;2023-07-02T03:25:00;17.00;;;11.20;;
80758;SDS011;70150;45.582;10.178;2023-07-02T03:27:25;26.25;;;15.52;;
80758;SDS011;70150;45.582;10.178;2023-07-02T03:29:51;21.58;;;14.93;;
80758;SDS011;70150;45.582;10.178;2023-07-02T03:32:17;26.55;;;15.73;;
80758;SDS011;70150;45.582;10.178;2023-07-02T03:34:43;22.95;;;14.65;;
80758;SDS011;70150;45.582;10.178;2023-07-02T03:37:08;22.20;;;12.70;;
80758;SDS011;70150;45.582;10.178;2023-07-02T03:39:34;19.80;;;12.98;;
80758;SDS011;70150;45.582;10.178;2023-07-02T03:41:59;18.80;;;12.57;;
80758;SDS011;70150;45.582;10.178;2023-07-02T03:44:25;17.85;;;11.73;;
80758;SDS011;70150;45.582;10.178;2023-07-02T03:46:50;16.80;;;11.00;;
80758;SDS011;70150;45.582;10.178;2023-07-02T03:49:16;22.25;;;14.55;;
80758;SDS011;70150;45.582;10.178;2023-07-02T03:51:41;25.00;;;15.77;;
80758;SDS011;70150;45.582;10.178;2023-07-02T03:54:07;17.52;;;11.80;;
80758;SDS011;70150;45.582;10.178;2023-07-02T03:56:32;18.27;;;12.15;;
80758;SDS011;70150;45.582;10.178;2023-07-02T03:58:58;20.13;;;11.43;;
80758;SDS011;70150;45.582;10.178;2023-07-02T04:01:23;15.55;;;11.85;;
80758;SDS011;70150;45.582;10.178;2023-07-02T04:03:49;16.30;;;10.82;;
80758;SDS011;70150;45.582;10.178;2023-07-02T04:06:17;15.40;;;10.50;;
80758;SDS011;70150;45.582;10.178;2023-07-02T04:08:43;16.70;;;11.23;;
80758;SDS011;70150;45.582;10.178;2023-07-02T04:11:12;15.20;;;10.82;;
80758;SDS011;70150;45.582;10.178;2023-07-02T04:13:39;15.27;;;10.05;;
80758;SDS011;70150;45.582;10.178;2023-07-02T04:16:05;14.50;;;10.55;;
80758;SDS011;70150;45.582;10.178;2023-07-02T04:18:31;15.80;;;11.02;;
80758;SDS011;70150;45.582;10.178;2023-07-02T04:20:59;17.52;;;10.63;;
80758;SDS011;70150;45.582;10.178;2023-07-02T04:23:24;14.73;;;9.45;;
80758;SDS011;70150;45.582;10.178;2023-07-02T04:25:50;16.48;;;9.60;;
80758;SDS011;70150;45.582;10.178;2023-07-02T04:28:16;16.00;;;9.85;;
80758;SDS011;70150;45.582;10.178;2023-07-02T04:30:42;17.38;;;11.13;;
80758;SDS011;70150;45.582;10.178;2023-07-02T04:33:08;15.25;;;10.77;;
80758;SDS011;70150;45.582;10.178;2023-07-02T04:35:34;16.88;;;10.63;;
80758;SDS011;70150;45.582;10.178;2023-07-02T04:38:00;18.90;;;10.73;;
80758;SDS011;70150;45.582;10.178;2023-07-02T04:40:26;16.58;;;11.30;;
80758;SDS011;70150;45.582;10.178;2023-07-02T04:42:52;19.35;;;11.10;;
80758;SDS011;70150;45.582;10.178;2023-07-02T04:45:22;17.98;;;11.25;;
80758;SDS011;70150;45.582;10.178;2023-07-02T04:47:49;18.83;;;11.63;;
80758;SDS011;70150;45.582;10.178;2023-07-02T04:50:15;17.67;;;11.52;;
80758;SDS011;70150;45.582;10.178;2023-07-02T04:52:42;18.60;;;11.50;;
80758;SDS011;70150;45.582;10.178;2023-07-02T04:55:10;17.13;;;10.98;;
80758;SDS011;70150;45.582;10.178;2023-07-02T04:57:35;16.85;;;11.38;;
80758;SDS011;70150;45.582;10.178;2023-07-02T05:00:01;18.92;;;11.02;;
80758;SDS011;70150;45.582;10.178;2023-07-02T05:02:29;15.13;;;10.43;;
80758;SDS011;70150;45.582;10.178;2023-07-02T05:04:55;15.02;;;10.43;;
80758;SDS011;70150;45.582;10.178;2023-07-02T05:07:21;16.83;;;10.95;;
80758;SDS011;70150;45.582;10.178;2023-07-02T05:09:46;15.57;;;10.77;;
80758;SDS011;70150;45.582;10.178;2023-07-02T05:12:13;15.95;;;11.48;;
80758;SDS011;70150;45.582;10.178;2023-07-02T05:14:39;15.35;;;10.45;;
80758;SDS011;70150;45.582;10.178;2023-07-02T05:17:05;15.20;;;10.02;;
80758;SDS011;70150;45.582;10.178;2023-07-02T05:19:30;15.32;;;10.32;;
80758;SDS011;70150;45.582;10.178;2023-07-02T05:21:56;16.35;;;9.88;;
80758;SDS011;70150;45.582;10.178;2023-07-02T05:24:21;15.98;;;10.68;;
80758;SDS011;70150;45.582;10.178;2023-07-02T05:26:47;15.93;;;10.57;;
80758;SDS011;70150;45.582;10.178;2023-07-02T05:29:12;15.85;;;10.60;;
80758;SDS011;70150;45.582;10.178;2023-07-02T05:31:39;19.98;;;13.35;;
80758;SDS011;70150;45.582;10.178;2023-07-02T05:34:05;16.48;;;10.75;;
80758;SDS011;70150;45.582;10.178;2023-07-02T05:36:30;19.45;;;11.43;;
80758;SDS011;70150;45.582;10.178;2023-07-02T05:38:56;15.75;;;11.02;;
80758;SDS011;70150;45.582;10.178;2023-07-02T05:41:22;17.67;;;11.15;;
80758;SDS011;70150;45.582;10.178;2023-07-02T05:43:48;17.50;;;11.77;;
80758;SDS011;70150;45.582;10.178;2023-07-02T05:46:14;17.35;;;11.55;;
80758;SDS011;70150;45.582;10.178;2023-07-02T05:48:41;18.27;;;12.07;;
80758;SDS011;70150;45.582;10.178;2023-07-02T05:53:32;16.00;;;10.70;;
80758;SDS011;70150;45.582;10.178;2023-07-02T05:55:58;15.25;;;10.25;;
80758;SDS011;70150;45.582;10.178;2023-07-02T05:58:23;14.50;;;9.88;;
80758;SDS011;70150;45.582;10.178;2023-07-02T06:00:49;13.32;;;9.30;;
80758;SDS011;70150;45.582;10.178;2023-07-02T06:03:15;15.52;;;10.45;;
80758;SDS011;70150;45.582;10.178;2023-07-02T06:05:46;13.70;;;9.65;;
80758;SDS011;70150;45.582;10.178;2023-07-02T06:08:15;15.10;;;10.35;;
80758;SDS011;70150;45.582;10.178;2023-07-02T06:10:42;16.40;;;10.02;;
80758;SDS011;70150;45.582;10.178;2023-07-02T06:15:34;12.50;;;9.18;;
80758;SDS011;70150;45.582;10.178;2023-07-02T06:17:59;14.88;;;10.18;;
80758;SDS011;70150;45.582;10.178;2023-07-02T06:20:25;11.93;;;8.65;;
80758;SDS011;70150;45.582;10.178;2023-07-02T06:22:50;12.95;;;8.80;;
80758;SDS011;70150;45.582;10.178;2023-07-02T06:25:16;16.75;;;10.00;;
80758;SDS011;70150;45.582;10.178;2023-07-02T06:27:41;14.80;;;9.70;;
80758;SDS011;70150;45.582;10.178;2023-07-02T06:30:07;38.60;;;25.80;;
80758;SDS011;70150;45.582;10.178;2023-07-02T06:32:33;39.38;;;27.10;;
80758;SDS011;70150;45.582;10.178;2023-07-02T06:34:59;27.52;;;19.80;;
80758;SDS011;70150;45.582;10.178;2023-07-02T06:37:24;25.08;;;16.95;;
80758;SDS011;70150;45.582;10.178;2023-07-02T06:39:50;26.80;;;19.42;;
80758;SDS011;70150;45.582;10.178;2023-07-02T06:42:15;28.33;;;19.80;;
80758;SDS011;70150;45.582;10.178;2023-07-02T06:44:41;28.70;;;20.00;;
80758;SDS011;70150;45.582;10.178;2023-07-02T06:47:07;29.48;;;19.85;;
80758;SDS011;70150;45.582;10.178;2023-07-02T06:49:33;29.33;;;20.80;;
80758;SDS011;70150;45.582;10.178;2023-07-02T06:51:58;28.70;;;20.23;;
80758;SDS011;70150;45.582;10.178;2023-07-02T06:54:25;31.30;;;20.65;;
80758;SDS011;70150;45.582;10.178;2023-07-02T06:56:51;27.58;;;20.70;;
80758;SDS011;70150;45.582;10.178;2023-07-02T07:01:48;28.85;;;20.83;;
80758;SDS011;70150;45.582;10.178;2023-07-02T07:04:14;28.38;;;19.60;;
80758;SDS011;70150;45.582;10.178;2023-07-02T07:06:40;30.80;;;19.98;;
80758;SDS011;70150;45.582;10.178;2023-07-02T07:09:08;29.48;;;21.63;;
80758;SDS011;70150;45.582;10.178;2023-07-02T07:11:34;34.17;;;22.33;;
80758;SDS011;70150;45.582;10.178;2023-07-02T07:14:00;30.65;;;22.40;;
80758;SDS011;70150;45.582;10.178;2023-07-02T07:16:26;30.30;;;21.65;;
80758;SDS011;70150;45.582;10.178;2023-07-02T07:18:51;30.80;;;22.65;;
80758;SDS011;70150;45.582;10.178;2023-07-02T07:21:17;34.40;;;23.30;;
80758;SDS011;70150;45.582;10.178;2023-07-02T07:23:42;30.77;;;22.83;;
80758;SDS011;70150;45.582;10.178;2023-07-02T07:26:08;32.25;;;22.95;;
80758;SDS011;70150;45.582;10.178;2023-07-02T07:28:34;32.75;;;22.40;;
80758;SDS011;70150;45.582;10.178;2023-07-02T07:30:59;32.58;;;22.35;;
80758;SDS011;70150;45.582;10.178;2023-07-02T07:33:25;33.50;;;22.80;;
80758;SDS011;70150;45.582;10.178;2023-07-02T07:35:50;36.13;;;25.00;;
80758;SDS011;70150;45.582;10.178;2023-07-02T07:38:16;33.08;;;23.15;;
80758;SDS011;70150;45.582;10.178;2023-07-02T07:40:42;31.77;;;23.27;;
80758;SDS011;70150;45.582;10.178;2023-07-02T07:43:08;36.20;;;25.15;;
80758;SDS011;70150;45.582;10.178;2023-07-02T07:45:33;38.28;;;26.00;;
80758;SDS011;70150;45.582;10.178;2023-07-02T07:47:59;33.55;;;22.70;;
80758;SDS011;70150;45.582;10.178;2023-07-02T07:50:25;35.05;;;22.50;;
80758;SDS011;70150;45.582;10.178;2023-07-02T07:52:51;33.80;;;22.73;;
80758;SDS011;70150;45.582;10.178;2023-07-02T07:55:16;31.75;;;22.98;;
80758;SDS011;70150;45.582;10.178;2023-07-02T07:57:42;32.25;;;22.55;;
80758;SDS011;70150;45.582;10.178;2023-07-02T08:00:08;31.33;;;22.33;;
80758;SDS011;70150;45.582;10.178;2023-07-02T08:02:35;29.10;;;20.70;;
80758;SDS011;70150;45.582;10.178;2023-07-02T08:05:03;31.40;;;22.50;;
80758;SDS011;70150;45.582;10.178;2023-07-02T08:07:30;32.17;;;23.30;;
80758;SDS011;70150;45.582;10.178;2023-07-02T08:09:56;29.77;;;21.40;;
80758;SDS011;70150;45.582;10.178;2023-07-02T08:12:22;28.48;;;20.48;;
80758;SDS011;70150;45.582;10.178;2023-07-02T08:14:48;33.33;;;21.02;;
80758;SDS011;70150;45.582;10.178;2023-07-02T08:17:14;30.33;;;21.25;;
80758;SDS011;70150;45.582;10.178;2023-07-02T08:19:40;28.98;;;20.05;;
80758;SDS011;70150;45.582;10.178;2023-07-02T08:22:05;26.65;;;19.13;;
80758;SDS011;70150;45.582;10.178;2023-07-02T08:24:31;30.25;;;21.73;;
80758;SDS011;70150;45.582;10.178;2023-07-02T08:26:59;31.55;;;21.17;;
80758;SDS011;70150;45.582;10.178;2023-07-02T08:29:26;33.30;;;22.73;;
80758;SDS011;70150;45.582;10.178;2023-07-02T08:31:51;32.78;;;22.80;;
80758;SDS011;70150;45.582;10.178;2023-07-02T08:34:17;28.85;;;20.35;;
80758;SDS011;70150;45.582;10.178;2023-07-02T08:36:43;32.40;;;22.77;;
80758;SDS011;70150;45.582;10.178;2023-07-02T08:39:08;29.92;;;21.17;;
80758;SDS011;70150;45.582;10.178;2023-07-02T08:44:06;30.98;;;23.08;;
80758;SDS011;70150;45.582;10.178;2023-07-02T08:46:32;31.23;;;22.08;;
80758;SDS011;70150;45.582;10.178;2023-07-02T08:48:57;32.40;;;23.02;;
80758;SDS011;70150;45.582;10.178;2023-07-02T08:51:23;36.65;;;24.70;;
80758;SDS011;70150;45.582;10.178;2023-07-02T08:53:48;33.90;;;23.42;;
80758;SDS011;70150;45.582;10.178;2023-07-02T08:56:14;33.10;;;22.70;;
80758;SDS011;70150;45.582;10.178;2023-07-02T08:58:40;33.63;;;21.48;;
80758;SDS011;70150;45.582;10.178;2023-07-02T09:01:07;33.85;;;24.70;;
80758;SDS011;70150;45.582;10.178;2023-07-02T09:03:36;34.78;;;23.25;;
80758;SDS011;70150;45.582;10.178;2023-07-02T09:06:03;35.15;;;23.15;;
80758;SDS011;70150;45.582;10.178;2023-07-02T09:08:29;34.45;;;24.00;;
80758;SDS011;70150;45.582;10.178;2023-07-02T09:13:27;32.70;;;22.85;;
80758;SDS011;70150;45.582;10.178;2023-07-02T09:15:52;33.47;;;23.55;;
80758;SDS011;70150;45.582;10.178;2023-07-02T09:18:18;29.88;;;22.20;;
80758;SDS011;70150;45.582;10.178;2023-07-02T09:20:49;39.45;;;24.88;;
80758;SDS011;70150;45.582;10.178;2023-07-02T09:23:16;31.67;;;22.63;;
80758;SDS011;70150;45.582;10.178;2023-07-02T09:25:42;35.90;;;24.02;;
80758;SDS011;70150;45.582;10.178;2023-07-02T09:33:12;29.20;;;21.52;;
80758;SDS011;70150;45.582;10.178;2023-07-02T09:35:40;34.72;;;23.60;;
80758;SDS011;70150;45.582;10.178;2023-07-02T09:38:06;33.15;;;23.33;;
80758;SDS011;70150;45.582;10.178;2023-07-02T09:40:32;33.13;;;22.70;;
80758;SDS011;70150;45.582;10.178;2023-07-02T09:42:58;29.23;;;20.00;;
80758;SDS011;70150;45.582;10.178;2023-07-02T09:45:24;28.50;;;21.08;;
80758;SDS011;70150;45.582;10.178;2023-07-02T09:47:51;29.77;;;20.75;;
80758;SDS011;70150;45.582;10.178;2023-07-02T09:50:20;27.92;;;19.70;;
80758;SDS011;70150;45.582;10.178;2023-07-02T09:52:47;29.65;;;21.00;;
80758;SDS011;70150;45.582;10.178;2023-07-02T09:55:14;25.83;;;18.70;;
80758;SDS011;70150;45.582;10.178;2023-07-02T09:57:40;25.77;;;19.65;;
80758;SDS011;70150;45.582;10.178;2023-07-02T10:00:10;28.70;;;20.25;;
80758;SDS011;70150;45.582;10.178;2023-07-02T10:02:36;34.55;;;20.98;;
80758;SDS011;70150;45.582;10.178;2023-07-02T10:05:02;31.27;;;19.98;;
80758;SDS011;70150;45.582;10.178;2023-07-02T10:07:28;28.67;;;21.55;;
80758;SDS011;70150;45.582;10.178;2023-07-02T10:09:55;24.83;;;17.88;;
80758;SDS011;70150;45.582;10.178;2023-07-02T10:12:22;23.95;;;17.50;;
80758;SDS011;70150;45.582;10.178;2023-07-02T10:14:49;25.70;;;18.75;;
80758;SDS011;70150;45.582;10.178;2023-07-02T10:19:50;26.77;;;19.48;;
80758;SDS011;70150;45.582;10.178;2023-07-02T10:22:17;28.73;;;21.23;;
80758;SDS011;70150;45.582;10.178;2023-07-02T10:27:17;28.17;;;19.95;;
80758;SDS011;70150;45.582;10.178;2023-07-02T10:29:48;28.70;;;20.15;;
80758;SDS011;70150;45.582;10.178;2023-07-02T10:32:25;23.20;;;17.13;;
80758;SDS011;70150;45.582;10.178;2023-07-02T10:34:52;30.92;;;20.90;;
80758;SDS011;70150;45.582;10.178;2023-07-02T10:37:18;30.52;;;21.23;;
80758;SDS011;70150;45.582;10.178;2023-07-02T10:39:43;31.10;;;21.92;;
80758;SDS011;70150;45.582;10.178;2023-07-02T10:42:09;29.17;;;20.77;;
80758;SDS011;70150;45.582;10.178;2023-07-02T10:44:46;25.15;;;17.75;;
80758;SDS011;70150;45.582;10.178;2023-07-02T10:47:13;28.83;;;19.50;;
80758;SDS011;70150;45.582;10.178;2023-07-02T10:49:38;28.23;;;20.15;;
80758;SDS011;70150;45.582;10.178;2023-07-02T10:52:04;24.25;;;18.08;;
80758;SDS011;70150;45.582;10.178;2023-07-02T10:57:07;30.75;;;19.67;;
80758;SDS011;70150;45.582;10.178;2023-07-02T10:59:33;26.17;;;19.15;;
80758;SDS011;70150;45.582;10.178;2023-07-02T11:01:59;24.25;;;18.30;;
80758;SDS011;70150;45.582;10.178;2023-07-02T11:04:27;22.67;;;17.08;;
80758;SDS011;70150;45.582;10.178;2023-07-02T11:06:53;21.45;;;16.67;;
80758;SDS011;70150;45.582;10.178;2023-07-02T11:09:19;23.50;;;16.55;;
80758;SDS011;70150;45.582;10.178;2023-07-02T11:16:53;25.63;;;20.02;;
80758;SDS011;70150;45.582;10.178;2023-07-02T11:19:20;28.83;;;20.40;;
80758;SDS011;70150;45.582;10.178;2023-07-02T11:24:25;24.15;;;17.52;;
80758;SDS011;70150;45.582;10.178;2023-07-02T11:26:55;24.13;;;18.27;;
80758;SDS011;70150;45.582;10.178;2023-07-02T11:29:21;22.35;;;16.33;;
80758;SDS011;70150;45.582;10.178;2023-07-02T11:31:47;21.70;;;16.58;;
80758;SDS011;70150;45.582;10.178;2023-07-02T11:36:40;26.33;;;19.50;;
80758;SDS011;70150;45.582;10.178;2023-07-02T11:39:05;25.17;;;19.45;;
80758;SDS011;70150;45.582;10.178;2023-07-02T11:44:02;23.75;;;18.23;;
80758;SDS011;70150;45.582;10.178;2023-07-02T11:46:28;25.70;;;17.77;;
80758;SDS011;70150;45.582;10.178;2023-07-02T11:48:54;24.73;;;17.42;;
80758;SDS011;70150;45.582;10.178;2023-07-02T11:51:19;23.55;;;17.88;;
80758;SDS011;70150;45.582;10.178;2023-07-02T11:53:45;18.77;;;14.43;;
80758;SDS011;70150;45.582;10.178;2023-07-02T11:56:15;18.15;;;13.52;;
80758;SDS011;70150;45.582;10.178;2023-07-02T11:58:41;24.40;;;15.57;;
80758;SDS011;70150;45.582;10.178;2023-07-02T12:01:07;21.77;;;16.02;;
80758;SDS011;70150;45.582;10.178;2023-07-02T12:03:32;21.08;;;15.35;;
80758;SDS011;70150;45.582;10.178;2023-07-02T12:05:58;18.52;;;13.68;;
80758;SDS011;70150;45.582;10.178;2023-07-02T12:08:24;15.90;;;11.68;;
80758;SDS011;70150;45.582;10.178;2023-07-02T12:10:49;16.95;;;13.75;;
80758;SDS011;70150;45.582;10.178;2023-07-02T12:13:15;17.20;;;12.98;;
80758;SDS011;70150;45.582;10.178;2023-07-02T12:15:40;18.58;;;14.23;;
80758;SDS011;70150;45.582;10.178;2023-07-02T12:18:06;20.75;;;15.43;;
80758;SDS011;70150;45.582;10.178;2023-07-02T12:20:32;20.83;;;17.08;;
80758;SDS011;70150;45.582;10.178;2023-07-02T12:22:57;22.73;;;16.83;;
80758;SDS011;70150;45.582;10.178;2023-07-02T12:25:23;23.50;;;16.58;;
80758;SDS011;70150;45.582;10.178;2023-07-02T12:27:49;20.58;;;16.70;;
80758;SDS011;70150;45.582;10.178;2023-07-02T12:30:14;19.58;;;14.68;;
80758;SDS011;70150;45.582;10.178;2023-07-02T12:32:42;17.98;;;14.10;;
80758;SDS011;70150;45.582;10.178;2023-07-02T12:35:09;19.73;;;14.88;;
80758;SDS011;70150;45.582;10.178;2023-07-02T12:37:34;21.90;;;15.38;;
80758;SDS011;70150;45.582;10.178;2023-07-02T12:40:00;21.90;;;15.70;;
80758;SDS011;70150;45.582;10.178;2023-07-02T12:42:26;21.52;;;17.27;;
80758;SDS011;70150;45.582;10.178;2023-07-02T12:44:51;20.50;;;16.40;;
80758;SDS011;70150;45.582;10.178;2023-07-02T12:47:17;20.35;;;13.48;;
80758;SDS011;70150;45.582;10.178;2023-07-02T12:49:43;16.45;;;13.43;;
80758;SDS011;70150;45.582;10.178;2023-07-02T12:52:08;18.20;;;13.70;;
80758;SDS011;70150;45.582;10.178;2023-07-02T12:54:34;17.92;;;13.98;;
80758;SDS011;70150;45.582;10.178;2023-07-02T12:57:00;19.67;;;15.00;;
80758;SDS011;70150;45.582;10.178;2023-07-02T12:59:25;20.73;;;14.45;;
80758;SDS011;70150;45.582;10.178;2023-07-02T13:01:51;17.60;;;12.88;;
80758;SDS011;70150;45.582;10.178;2023-07-02T13:04:16;19.42;;;14.70;;
80758;SDS011;70150;45.582;10.178;2023-07-02T13:06:44;17.75;;;13.70;;
80758;SDS011;70150;45.582;10.178;2023-07-02T13:09:10;17.42;;;13.88;;
80758;SDS011;70150;45.582;10.178;2023-07-02T13:11:36;20.63;;;15.00;;
80758;SDS011;70150;45.582;10.178;2023-07-02T13:14:03;18.27;;;14.73;;
80758;SDS011;70150;45.582;10.178;2023-07-02T13:16:28;18.52;;;14.60;;
80758;SDS011;70150;45.582;10.178;2023-07-02T13:18:55;17.33;;;14.02;;
80758;SDS011;70150;45.582;10.178;2023-07-02T13:21:22;23.60;;;16.65;;
80758;SDS011;70150;45.582;10.178;2023-07-02T13:23:47;16.02;;;11.70;;
80758;SDS011;70150;45.582;10.178;2023-07-02T13:26:13;17.02;;;12.75;;
80758;SDS011;70150;45.582;10.178;2023-07-02T13:28:38;17.73;;;13.20;;
80758;SDS011;70150;45.582;10.178;2023-07-02T13:31:04;17.75;;;13.38;;
80758;SDS011;70150;45.582;10.178;2023-07-02T13:33:33;17.05;;;13.23;;
80758;SDS011;70150;45.582;10.178;2023-07-02T13:35:58;19.73;;;14.60;;
80758;SDS011;70150;45.582;10.178;2023-07-02T13:38:26;17.88;;;14.48;;
80758;SDS011;70150;45.582;10.178;2023-07-02T13:40:52;17.58;;;14.32;;
80758;SDS011;70150;45.582;10.178;2023-07-02T13:43:17;20.85;;;16.25;;
80758;SDS011;70150;45.582;10.178;2023-07-02T13:45:45;20.75;;;14.77;;
80758;SDS011;70150;45.582;10.178;2023-07-02T13:48:13;20.17;;;16.75;;
80758;SDS011;70150;45.582;10.178;2023-07-02T13:50:38;18.33;;;14.43;;
80758;SDS011;70150;45.582;10.178;2023-07-02T13:53:04;17.48;;;12.35;;
80758;SDS011;70150;45.582;10.178;2023-07-02T13:55:32;16.02;;;12.80;;
80758;SDS011;70150;45.582;10.178;2023-07-02T13:58:00;16.58;;;12.25;;
80758;SDS011;70150;45.582;10.178;2023-07-02T14:00:26;17.63;;;14.10;;
80758;SDS011;70150;45.582;10.178;2023-07-02T14:05:18;14.55;;;11.05;;
80758;SDS011;70150;45.582;10.178;2023-07-02T14:07:44;15.63;;;13.10;;
80758;SDS011;70150;45.582;10.178;2023-07-02T14:10:10;18.67;;;12.65;;
80758;SDS011;70150;45.582;10.178;2023-07-02T14:12:37;15.32;;;12.07;;
80758;SDS011;70150;45.582;10.178;2023-07-02T14:15:04;17.67;;;14.10;;
80758;SDS011;70150;45.582;10.178;2023-07-02T14:17:30;12.55;;;10.45;;
80758;SDS011;70150;45.582;10.178;2023-07-02T14:19:55;16.00;;;13.73;;
80758;SDS011;70150;45.582;10.178;2023-07-02T14:22:21;18.15;;;14.05;;
80758;SDS011;70150;45.582;10.178;2023-07-02T14:24:48;14.10;;;12.05;;
80758;SDS011;70150;45.582;10.178;2023-07-02T14:27:14;14.65;;;10.25;;
80758;SDS011;70150;45.582;10.178;2023-07-02T14:29:40;12.13;;;10.35;;
80758;SDS011;70150;45.582;10.178;2023-07-02T14:32:05;15.07;;;11.52;;
80758;SDS011;70150;45.582;10.178;2023-07-02T14:36:57;17.98;;;12.20;;
80758;SDS011;70150;45.582;10.178;2023-07-02T14:39:23;16.20;;;12.45;;
80758;SDS011;70150;45.582;10.178;2023-07-02T14:41:49;15.55;;;12.15;;
80758;SDS011;70150;45.582;10.178;2023-07-02T14:44:14;17.15;;;14.07;;
80758;SDS011;70150;45.582;10.178;2023-07-02T14:46:40;15.52;;;12.10;;
80758;SDS011;70150;45.582;10.178;2023-07-02T14:49:07;17.20;;;14.13;;
80758;SDS011;70150;45.582;10.178;2023-07-02T14:51:33;17.25;;;14.00;;
80758;SDS011;70150;45.582;10.178;2023-07-02T14:53:59;14.23;;;11.52;;
80758;SDS011;70150;45.582;10.178;2023-07-02T14:56:26;22.48;;;16.35;;